Time;durP1;ratioP1;P1;durP2;ratioP2;P2;SDS_P1;SDS_P2;PMS_P1;PMS_P2;Temp;Humidity;BMP_temperature;BMP_pressure;BME280_temperature;BME280_humidity;BME280_pressure;Samples;Min_cycle;Max_cycle;Signal;HPM_P1;HPM_P2
2023/08/28 00:01:01;;;;;;;3.97;2.20;;;;;;;26.69;54.77;98982.97;4379577;32;33711;-89
2023/08/28 00:03:30;;;;;;;2.45;2.15;;;;;;;26.68;54.93;98986.72;4390220;32;33313;-89
2023/08/28 00:05:58;;;;;;;2.72;2.53;;;;;;;26.71;54.85;98974.66;4389759;32;33165;-91
2023/08/28 00:08:26;;;;;;;2.67;2.12;;;;;;;26.58;55.56;98985.31;4378230;32;34515;-89
2023/08/28 00:10:54;;;;;;;2.42;2.22;;;;;;;26.57;55.56;98972.81;4389333;32;33322;-89
2023/08/28 00:13:22;;;;;;;1.90;1.25;;;;;;;26.66;55.45;98977.94;4390032;32;33272;-89
2023/08/28 00:15:49;;;;;;;2.58;1.83;;;;;;;26.62;55.53;98976.62;4386608;32;33719;-89
2023/08/28 00:18:17;;;;;;;1.95;1.73;;;;;;;26.60;55.88;98984.12;4388273;32;34514;-89
2023/08/28 00:20:45;;;;;;;5.05;2.75;;;;;;;26.66;55.71;98975.22;4389429;32;33671;-89
2023/08/28 00:23:13;;;;;;;2.00;1.15;;;;;;;26.61;56.06;98977.66;4376948;32;33749;-89
2023/08/28 00:25:41;;;;;;;3.55;2.05;;;;;;;26.61;56.38;98974.13;4390001;32;34059;-89
2023/08/28 00:28:09;;;;;;;1.75;1.35;;;;;;;26.62;56.68;98970.38;4377592;32;32506;-88
2023/08/28 00:30:36;;;;;;;1.48;1.37;;;;;;;26.68;56.57;98969.59;4365475;32;33602;-89
2023/08/28 00:33:05;;;;;;;8.05;1.30;;;;;;;26.53;57.24;98973.19;4376974;32;33200;-89
2023/08/28 00:35:33;;;;;;;2.97;1.08;;;;;;;26.44;57.69;98968.06;4391485;32;33306;-89
2023/08/28 00:38:01;;;;;;;1.45;1.35;;;;;;;26.46;57.76;98966.03;4392039;32;34012;-89
2023/08/28 00:40:29;;;;;;;1.17;1.08;;;;;;;26.64;57.17;98969.16;4392035;32;33252;-89
2023/08/28 00:42:56;;;;;;;1.25;1.15;;;;;;;26.64;57.00;98958.34;4392389;32;33921;-90
2023/08/28 00:45:25;;;;;;;1.85;1.10;;;;;;;26.61;57.17;98958.72;4367113;32;34120;-90
2023/08/28 00:47:52;;;;;;;1.83;1.62;;;;;;;26.68;56.82;98951.53;4380037;32;33167;-90
2023/08/28 00:50:20;;;;;;;0.65;0.65;;;;;;;26.65;57.10;98960.00;4377575;32;32809;-90
2023/08/28 00:52:48;;;;;;;1.02;0.95;;;;;;;26.65;56.93;98953.75;4373073;32;32684;-92
2023/08/28 00:55:25;;;;;;;1.17;1.08;;;;;;;26.66;56.98;98960.84;4386209;32;33655;-89
2023/08/28 00:57:53;;;;;;;3.37;1.52;;;;;;;26.69;56.87;98965.91;4378744;32;33802;-89
2023/08/28 01:00:21;;;;;;;1.50;1.40;;;;;;;26.72;56.80;98960.91;4373129;32;33268;-89
2023/08/28 01:02:49;;;;;;;2.97;1.52;;;;;;;26.67;56.96;98960.66;4366771;32;33028;-89
2023/08/28 01:05:18;;;;;;;1.42;1.00;;;;;;;26.62;57.12;98954.97;4391155;32;32749;-91
2023/08/28 01:08:13;;;;;;;1.83;1.60;;;;;;;26.67;56.94;98955.22;4378309;32;33723;-89
2023/08/28 01:10:46;;;;;;;0.75;0.75;;;;;;;26.62;56.99;98954.97;4391638;32;32985;-89
2023/08/28 01:13:31;;;;;;;3.03;1.48;;;;;;;26.65;56.94;98949.19;4371645;32;32634;-89
2023/08/28 01:15:59;;;;;;;1.37;0.95;;;;;;;26.65;56.90;98949.19;4371837;32;32935;-89
2023/08/28 01:18:27;;;;;;;1.55;1.23;;;;;;;26.62;56.82;98946.00;4390542;32;34025;-89
2023/08/28 01:20:57;;;;;;;1.60;1.12;;;;;;;26.59;56.92;98939.13;4390546;32;34447;-89
2023/08/28 01:23:35;;;;;;;1.27;1.15;;;;;;;26.47;57.31;98935.22;4373038;32;32899;-89
2023/08/28 01:26:08;;;;;;;1.00;0.88;;;;;;;26.41;57.44;98941.37;4378234;32;33047;-88
2023/08/28 01:28:36;;;;;;;0.85;0.85;;;;;;;26.45;57.31;98937.28;4373926;32;34341;-91
2023/08/28 01:31:04;;;;;;;0.77;0.77;;;;;;;26.15;58.40;98939.97;4379880;32;32512;-89
2023/08/28 01:33:36;;;;;;;1.10;1.05;;;;;;;26.21;58.19;98938.41;4392344;32;31610;-91
2023/08/28 01:36:07;;;;;;;2.45;0.93;;;;;;;26.21;58.10;98936.53;4378974;32;32972;-91
2023/08/28 01:38:41;;;;;;;1.62;1.27;;;;;;;26.02;58.61;98946.06;4379759;32;34393;-91
2023/08/28 01:41:10;;;;;;;0.68;0.68;;;;;;;26.29;57.77;98933.72;4391423;32;32476;-89
2023/08/28 01:43:38;;;;;;;0.70;0.70;;;;;;;26.15;58.19;98936.44;4379322;32;32031;-89
2023/08/28 01:46:07;;;;;;;0.62;0.62;;;;;;;26.27;57.88;98940.34;4371062;32;33158;-89
2023/08/28 01:48:35;;;;;;;1.20;1.10;;;;;;;26.37;57.45;98934.66;4366131;32;34604;-90
2023/08/28 01:51:03;;;;;;;1.30;0.62;;;;;;;26.24;57.83;98946.97;4378967;32;32854;-89
2023/08/28 01:53:31;;;;;;;1.45;1.33;;;;;;;26.17;57.95;98943.34;4374083;32;33083;-88
2023/08/28 01:56:08;;;;;;;2.03;1.37;;;;;;;26.13;58.28;98946.63;4391151;32;33816;-89
2023/08/28 01:58:47;;;;;;;1.30;1.10;;;;;;;26.02;58.44;98943.38;4391152;32;33550;-89
2023/08/28 02:01:15;;;;;;;0.80;0.80;;;;;;;25.90;58.90;98950.25;4391402;32;33914;-89
2023/08/28 02:03:44;;;;;;;1.48;1.37;;;;;;;25.83;59.28;98949.34;4391655;32;33761;-90
2023/08/28 02:06:12;;;;;;;1.10;0.90;;;;;;;25.91;58.84;98945.69;4377781;32;33948;-91
2023/08/28 02:08:40;;;;;;;2.15;1.20;;;;;;;25.82;59.22;98944.94;4377683;32;33686;-90
2023/08/28 02:11:08;;;;;;;0.65;0.65;;;;;;;25.87;59.08;98944.38;4365962;32;34276;-90
2023/08/28 02:13:37;;;;;;;2.62;1.37;;;;;;;25.77;59.32;98950.88;4391349;32;33564;-88
2023/08/28 02:16:05;;;;;;;18.05;1.58;;;;;;;25.68;59.58;98951.13;4379692;32;33158;-88
2023/08/28 02:18:32;;;;;;;1.87;1.40;;;;;;;25.91;58.63;98951.09;4366102;32;33015;-89
2023/08/28 02:21:00;;;;;;;0.77;0.77;;;;;;;25.91;58.50;98949.22;4404042;32;33810;-89
2023/08/28 02:23:29;;;;;;;2.62;0.50;;;;;;;25.78;59.05;98947.19;4372862;32;31775;-89
2023/08/28 02:25:56;;;;;;;0.70;0.70;;;;;;;25.84;58.51;98950.16;4384345;32;33287;-89
2023/08/28 02:28:25;;;;;;;5.72;1.48;;;;;;;25.99;58.07;98948.31;4391326;32;33563;-89
2023/08/28 02:30:53;;;;;;;10.50;1.27;;;;;;;25.68;58.88;98951.97;4378403;32;33439;-88
2023/08/28 02:33:21;;;;;;;1.23;1.12;;;;;;;25.81;58.34;98956.78;4366644;32;33684;-88
2023/08/28 02:35:48;;;;;;;0.60;0.60;;;;;;;25.67;58.71;98960.28;4377658;32;33832;-88
2023/08/28 02:38:20;;;;;;;0.90;0.90;;;;;;;25.64;58.76;98956.09;4379245;32;33649;-89
2023/08/28 02:40:47;;;;;;;0.60;0.60;;;;;;;25.36;59.63;98963.09;4391572;32;33862;-89
2023/08/28 02:43:23;;;;;;;2.58;0.95;;;;;;;25.46;59.44;98959.13;4377555;32;34011;-89
2023/08/28 02:45:52;;;;;;;0.82;0.80;;;;;;;25.31;59.90;98954.72;4390990;32;33745;-89
2023/08/28 02:48:20;;;;;;;1.55;1.45;;;;;;;25.36;59.71;98955.84;4385224;32;34431;-89
2023/08/28 02:50:49;;;;;;;0.62;0.60;;;;;;;25.61;58.69;98951.03;4390472;32;33827;-90
2023/08/28 02:53:17;;;;;;;0.35;0.17;;;;;;;25.51;58.86;98947.75;4391473;32;33269;-89
2023/08/28 02:56:17;;;;;;;0.80;0.80;;;;;;;25.61;58.34;98950.19;4378142;32;33778;-89
2023/08/28 02:58:45;;;;;;;0.62;0.62;;;;;;;25.51;58.74;98939.66;4391317;32;33835;-88
2023/08/28 03:01:12;;;;;;;2.30;1.27;;;;;;;25.30;59.21;98943.03;4390943;32;33415;-88
2023/08/28 03:03:40;;;;;;;0.60;0.60;;;;;;;25.35;59.05;98942.50;4391467;32;33716;-89
2023/08/28 03:06:08;;;;;;;1.55;1.08;;;;;;;25.47;58.77;98943.75;4366683;32;34055;-88
2023/08/28 03:08:36;;;;;;;1.75;1.50;;;;;;;25.39;58.95;98946.50;4378095;32;33972;-89
2023/08/28 03:11:04;;;;;;;5.00;1.37;;;;;;;25.20;59.57;98947.84;4382834;32;33577;-89
2023/08/28 03:13:32;;;;;;;1.27;1.17;;;;;;;25.11;59.87;98949.78;4384760;32;33364;-89
2023/08/28 03:15:59;;;;;;;1.98;0.85;;;;;;;25.30;59.20;98951.13;4390906;32;33915;-89
2023/08/28 03:18:27;;;;;;;1.17;0.62;;;;;;;25.44;58.72;98958.44;4375647;32;33120;-88
2023/08/28 03:20:56;;;;;;;0.77;0.77;;;;;;;25.18;59.45;98961.56;4390960;32;33731;-88
2023/08/28 03:23:23;;;;;;;1.00;0.90;;;;;;;25.22;59.40;98968.28;4391421;32;33415;-88
2023/08/28 03:25:51;;;;;;;2.85;1.08;;;;;;;25.19;59.63;98968.62;4390677;32;33372;-88
2023/08/28 03:28:19;;;;;;;0.80;0.80;;;;;;;25.33;58.83;98968.88;4382853;32;34683;-88
2023/08/28 03:31:05;;;;;;;1.75;0.88;;;;;;;25.13;59.27;98969.34;4402607;32;33500;-87
2023/08/28 03:33:35;;;;;;;16.75;2.05;;;;;;;24.99;60.09;98964.69;4377870;32;34432;-88
2023/08/28 03:36:05;;;;;;;0.20;0.20;;;;;;;25.18;59.15;98964.25;4378609;32;32698;-89
2023/08/28 03:38:34;;;;;;;1.33;1.15;;;;;;;25.13;59.34;98958.56;4390801;32;33915;-88
2023/08/28 03:41:07;;;;;;;0.65;0.65;;;;;;;25.17;59.12;98959.88;4377182;32;32773;-90
2023/08/28 03:43:35;;;;;;;1.58;1.30;;;;;;;25.06;59.48;98973.75;4366763;32;32834;-89
2023/08/28 03:46:03;;;;;;;1.33;1.23;;;;;;;24.98;59.76;98976.53;4370690;32;33167;-88
2023/08/28 03:48:31;;;;;;;0.82;0.77;;;;;;;24.99;59.64;98981.75;4378112;32;33156;-89
2023/08/28 03:50:58;;;;;;;1.77;1.30;;;;;;;24.88;59.98;98986.72;4388830;32;33460;-88
2023/08/28 03:53:27;;;;;;;1.50;0.65;;;;;;;24.81;60.18;98985.75;4390357;32;32000;-89
2023/08/28 03:55:55;;;;;;;0.93;0.88;;;;;;;24.74;60.52;98991.03;4365159;32;34224;-89
2023/08/28 03:58:23;;;;;;;1.00;0.50;;;;;;;24.73;60.39;98979.37;4389934;32;33906;-89
2023/08/28 04:00:53;;;;;;;0.75;0.73;;;;;;;24.59;60.91;98993.59;4390985;32;33802;-88
2023/08/28 04:03:22;;;;;;;0.57;0.57;;;;;;;24.11;62.47;98990.06;4390658;32;33388;-88
2023/08/28 04:05:52;;;;;;;1.17;1.12;;;;;;;24.43;61.26;98988.31;4369867;32;32840;-88
2023/08/28 04:08:21;;;;;;;2.85;1.45;;;;;;;24.37;61.52;98983.62;4353183;32;37022;-87
2023/08/28 04:10:49;;;;;;;0.73;0.70;;;;;;;24.45;61.09;98981.72;4378404;32;34029;-87
2023/08/28 04:13:17;;;;;;;1.20;0.60;;;;;;;24.57;60.74;98984.88;4385858;32;33188;-90
2023/08/28 04:15:44;;;;;;;0.43;0.43;;;;;;;24.55;60.90;98986.91;4367425;32;33102;-90
2023/08/28 04:18:16;;;;;;;1.10;1.00;;;;;;;24.56;60.87;98988.59;4369084;32;33517;-90
2023/08/28 04:20:44;;;;;;;10.35;1.77;;;;;;;24.60;60.74;98995.31;4376192;32;32916;-89
2023/08/28 04:23:13;;;;;;;0.80;0.40;;;;;;;24.59;60.67;98987.37;4380329;32;32203;-90
2023/08/28 04:25:42;;;;;;;0.62;0.62;;;;;;;24.48;61.03;98994.00;4370297;32;32635;-91
2023/08/28 04:28:09;;;;;;;1.52;1.08;;;;;;;24.42;61.46;98989.31;4383876;32;33747;-90
2023/08/28 04:30:37;;;;;;;1.87;1.52;;;;;;;24.34;61.74;98984.75;4383133;32;33632;-90
2023/08/28 04:33:05;;;;;;;2.40;1.20;;;;;;;24.67;60.55;98974.69;4378569;32;33432;-90
2023/08/28 04:35:33;;;;;;;1.35;0.85;;;;;;;24.24;62.07;98974.19;4378147;32;33432;-90
2023/08/28 04:38:01;;;;;;;3.72;2.78;;;;;;;24.29;61.60;98973.66;4402689;32;34066;-91
2023/08/28 04:40:29;;;;;;;0.40;0.40;;;;;;;24.37;61.56;98970.13;4377979;32;32584;-90
2023/08/28 04:42:57;;;;;;;1.80;1.30;;;;;;;24.42;61.25;98965.88;4377907;32;32824;-89
2023/08/28 04:45:25;;;;;;;1.00;0.90;;;;;;;24.40;61.46;98958.97;4364585;32;34174;-87
2023/08/28 04:47:53;;;;;;;1.42;0.80;;;;;;;24.47;61.27;98957.25;4379148;32;33712;-87
2023/08/28 04:50:20;;;;;;;0.70;0.68;;;;;;;24.34;62.05;98960.47;4361832;32;33584;-87
2023/08/28 04:52:48;;;;;;;1.23;1.17;;;;;;;24.63;60.82;98957.16;4374142;32;32735;-87
2023/08/28 04:55:16;;;;;;;2.50;0.95;;;;;;;24.54;61.37;98955.50;4385088;32;33255;-87
2023/08/28 04:57:43;;;;;;;0.62;0.60;;;;;;;24.56;61.51;98945.41;4386194;32;32477;-87
2023/08/28 05:00:12;;;;;;;0.98;0.82;;;;;;;24.67;60.93;98939.59;4373643;32;33041;-88
2023/08/28 05:02:40;;;;;;;1.30;0.90;;;;;;;24.76;60.67;98945.78;4375390;32;33785;-90
2023/08/28 05:05:09;;;;;;;0.70;0.70;;;;;;;24.68;61.02;98933.16;4367660;32;34266;-90
2023/08/28 05:07:37;;;;;;;0.40;0.40;;;;;;;24.54;61.38;98933.94;4386610;32;33560;-90
2023/08/28 05:10:16;;;;;;;0.57;0.57;;;;;;;24.31;62.67;98925.78;4371207;32;34308;-90
2023/08/28 05:12:44;;;;;;;0.30;0.30;;;;;;;24.69;61.35;98924.06;4388934;32;34138;-90
2023/08/28 05:15:12;;;;;;;0.70;0.70;;;;;;;25.01;60.79;98922.12;4381300;32;33805;-90
2023/08/28 05:17:40;;;;;;;0.95;0.95;;;;;;;25.11;60.28;98911.13;4369836;32;32998;-90
2023/08/28 05:20:09;;;;;;;1.08;0.50;;;;;;;24.91;60.92;98922.38;4384186;32;33751;-90
2023/08/28 05:22:37;;;;;;;1.17;0.68;;;;;;;25.11;60.07;98928.16;4370774;32;32348;-90
2023/08/28 05:25:05;;;;;;;0.52;0.30;;;;;;;24.91;61.08;98925.09;4378748;32;33030;-90
2023/08/28 05:27:33;;;;;;;1.48;1.37;;;;;;;25.42;59.71;98932.63;4369596;32;32489;-90
2023/08/28 05:30:02;;;;;;;1.48;0.77;;;;;;;25.61;59.66;98937.53;4368778;32;32879;-90
2023/08/28 05:32:31;;;;;;;2.37;1.77;;;;;;;25.60;59.47;98938.56;4385230;32;32566;-90
2023/08/28 05:34:59;;;;;;;1.60;0.85;;;;;;;25.72;59.06;98937.06;4376665;32;33672;-87
2023/08/28 05:37:28;;;;;;;0.52;0.52;;;;;;;25.97;58.31;98934.09;4389938;32;33248;-87
2023/08/28 05:39:56;;;;;;;1.08;0.55;;;;;;;25.83;58.73;98934.94;4361736;32;34328;-87
2023/08/28 05:42:24;;;;;;;0.10;0.10;;;;;;;25.71;59.37;98938.09;4375559;32;33654;-87
2023/08/28 05:44:52;;;;;;;0.55;0.55;;;;;;;25.93;58.39;98933.66;4363637;32;32982;-87
2023/08/28 05:47:20;;;;;;;1.48;1.37;;;;;;;25.97;58.08;98934.09;4372886;32;33062;-87
2023/08/28 05:49:47;;;;;;;1.00;0.80;;;;;;;26.06;58.21;98914.06;4388007;32;33756;-87
2023/08/28 05:52:23;;;;;;;1.15;0.85;;;;;;;26.08;58.43;98912.00;4388355;32;32992;-87
2023/08/28 05:54:56;;;;;;;0.90;0.90;;;;;;;26.68;56.89;98908.19;4366656;32;32643;-87
2023/08/28 05:57:24;;;;;;;0.60;0.55;;;;;;;26.68;56.49;98905.47;4378234;32;34629;-88
2023/08/28 05:59:52;;;;;;;1.55;0.93;;;;;;;26.69;56.59;98906.31;4364050;32;33969;-87
2023/08/28 06:02:24;;;;;;;0.90;0.90;;;;;;;26.87;56.68;98908.56;4372721;32;30927;-88
2023/08/28 06:05:08;;;;;;;;;;;;;;;26.78;56.23;98906.00;4370822;32;33439;-88
2023/08/28 06:08:21;;;;;;;0.37;0.37;;;;;;;26.77;56.03;98904.31;4384183;32;34530;-88
2023/08/28 06:10:50;;;;;;;2.45;1.52;;;;;;;27.02;55.67;98901.22;4384478;32;34647;-88
2023/08/28 06:13:24;;;;;;;2.05;1.08;;;;;;;27.17;55.69;98891.19;4374602;32;32448;-87
2023/08/28 06:15:52;;;;;;;4.57;1.62;;;;;;;27.21;55.49;98897.88;4362947;32;34096;-87
2023/08/28 06:18:21;;;;;;;1.37;0.57;;;;;;;27.02;55.73;98893.94;4238292;33;34559;-87
2023/08/28 06:20:55;;;;;;;0.75;0.75;;;;;;;27.68;54.02;98892.78;4477828;31;167767;-87
2023/08/28 06:23:23;;;;;;;0.68;0.62;;;;;;;27.72;54.31;98894.94;4421205;32;33199;-87
2023/08/28 06:25:51;;;;;;;1.25;0.80;;;;;;;27.39;54.91;98893.84;4348487;32;33310;-86
2023/08/28 06:29:53;;;;;;;0.50;0.50;;;;;;;28.02;53.37;98898.25;4460648;31;97326;-89
2023/08/28 06:32:21;;;;;;;2.58;1.25;;;;;;;28.02;53.37;98898.25;4428636;32;31816;-89
2023/08/28 06:34:49;;;;;;;0.98;0.93;;;;;;;27.52;54.09;98904.78;4426276;32;32583;-88
2023/08/28 06:37:16;;;;;;;0.60;0.57;;;;;;;27.52;53.84;98897.47;4425043;32;32961;-87
2023/08/28 06:39:44;;;;;;;1.52;1.37;;;;;;;27.59;54.03;98902.97;4441394;32;33453;-87
2023/08/28 06:42:12;;;;;;;0.37;0.37;;;;;;;27.92;53.31;98892.34;4440572;32;32323;-88
2023/08/28 06:44:41;;;;;;;1.35;1.12;;;;;;;28.24;53.31;98882.66;4441274;32;32690;-89
2023/08/28 06:47:09;;;;;;;2.17;1.27;;;;;;;28.50;52.92;98875.69;4310537;32;33113;-89
2023/08/28 06:49:36;;;;;;;0.62;0.62;;;;;;;28.61;52.20;98869.66;4284231;32;32634;-90
2023/08/28 06:52:25;;;;;;;1.40;1.30;;;;;;;28.57;52.84;98868.38;4260297;33;31968;-91
2023/08/28 06:54:51;;;;;;;0.82;0.82;;;;;;;28.68;51.59;98866.97;4204149;33;34114;-92
2023/08/28 06:57:18;;;;;;;2.12;1.48;;;;;;;28.14;53.22;98863.22;4279593;33;33578;-91
2023/08/28 07:00:16;;;;;;;0.75;0.50;;;;;;;28.68;50.99;98858.81;4339295;32;33122;-92
2023/08/28 07:03:03;;;;;;;1.33;1.23;;;;;;;28.69;52.37;98845.03;4363886;32;32331;-90
2023/08/28 07:05:52;;;;;;;0.68;0.68;;;;;;;28.43;52.75;98845.78;4347799;32;32852;-91
2023/08/28 07:08:59;;;;;;;2.33;2.03;;;;;;;28.11;53.51;98841.09;4369759;32;34568;-93
2023/08/28 07:11:47;;;;;;;3.25;1.17;;;;;;;28.14;52.77;98832.53;4370846;32;32184;-93
2023/08/28 07:14:55;;;;;;;1.20;0.85;;;;;;;28.66;52.19;98836.44;4359718;32;32395;-94
2023/08/28 07:17:35;;;;;;;4.68;1.85;;;;;;;28.68;52.91;98827.06;4398148;32;33906;-92
2023/08/28 07:20:27;;;;;;;3.58;1.67;;;;;;;29.17;50.40;98830.44;4341614;33;33434;-92
2023/08/28 07:22:59;;;;;;;2.42;1.85;;;;;;;28.67;49.87;98825.38;4347264;33;32804;-91
2023/08/28 07:26:20;;;;;;;2.95;2.67;;;;;;;28.45;51.45;98823.88;4342879;32;33507;-91
2023/08/28 07:29:00;;;;;;;10.90;1.95;;;;;;;28.50;51.06;98824.09;4327594;33;34297;-91
2023/08/28 07:31:46;;;;;;;2.00;0.90;;;;;;;28.77;50.77;98825.81;4393280;32;32519;-92
2023/08/28 07:34:37;;;;;;;12.20;2.65;;;;;;;29.14;49.45;98831.69;4358081;32;32462;-92
2023/08/28 07:37:20;;;;;;;1.98;1.73;;;;;;;29.06;49.78;98829.19;4381841;32;32303;-91
2023/08/28 07:40:06;;;;;;;16.67;1.87;;;;;;;28.70;51.37;98837.72;4356270;32;32324;-91
2023/08/28 07:43:15;;;;;;;;;;;;;;;28.77;50.60;98847.56;4369360;32;32238;-91
2023/08/28 07:45:43;;;;;;;2.90;2.12;;;;;;;29.07;50.08;98849.91;4376417;32;32602;-91
2023/08/28 07:48:32;;;;;;;3.10;2.03;;;;;;;28.90;50.83;98849.41;4367910;32;32568;-92
2023/08/28 07:51:00;;;;;;;2.83;2.30;;;;;;;28.49;51.99;98847.72;4378039;32;33251;-91
2023/08/28 07:53:43;;;;;;;1.67;1.50;;;;;;;28.60;52.03;98846.25;4339715;32;33873;-91
2023/08/28 07:56:21;;;;;;;3.95;1.50;;;;;;;29.25;51.10;98844.66;4360519;32;32820;-90
2023/08/28 07:58:49;;;;;;;5.50;2.15;;;;;;;29.32;50.17;98844.63;4358555;32;32318;-90
2023/08/28 08:01:23;;;;;;;3.50;2.20;;;;;;;28.75;51.75;98849.63;4353429;32;33966;-90
2023/08/28 08:04:23;;;;;;;14.18;2.17;;;;;;;28.70;51.75;98846.69;4351814;32;33203;-91
2023/08/28 08:07:08;;;;;;;1.70;1.60;;;;;;;29.59;49.63;98840.03;4312459;33;33301;-90
2023/08/28 08:09:50;;;;;;;3.53;2.22;;;;;;;29.64;49.86;98848.38;4336489;33;32200;-91
2023/08/28 08:12:18;;;;;;;2.33;2.15;;;;;;;29.75;49.04;98838.72;4328293;32;33228;-91
2023/08/28 08:14:48;;;;;;;2.58;1.98;;;;;;;29.39;49.56;98837.31;4322341;33;34297;-90
2023/08/28 08:17:18;;;;;;;1.70;1.60;;;;;;;29.17;50.77;98835.87;4335682;33;32346;-90
2023/08/28 08:19:53;;;;;;;15.18;2.17;;;;;;;29.15;50.75;98822.50;4325199;33;32484;-90
2023/08/28 08:22:21;;;;;;;3.08;1.73;;;;;;;29.38;50.83;98822.03;4335751;32;32560;-91
2023/08/28 08:24:49;;;;;;;2.55;1.92;;;;;;;29.21;51.37;98818.94;4340235;32;32644;-91
2023/08/28 08:27:18;;;;;;;2.22;1.73;;;;;;;29.33;50.90;98809.06;4351533;32;32481;-91
2023/08/28 08:30:09;;;;;;;7.32;3.87;;;;;;;29.33;50.83;98800.91;4341890;32;32165;-91
2023/08/28 08:32:51;;;;;;;1.35;1.25;;;;;;;30.01;49.52;98796.97;4371715;32;34207;-89
2023/08/28 08:35:21;;;;;;;4.07;3.28;;;;;;;29.91;49.33;98796.59;4364920;32;32970;-91
2023/08/28 08:37:52;;;;;;;2.12;1.98;;;;;;;30.18;48.66;98795.44;4363977;32;32820;-90
2023/08/28 08:40:24;;;;;;;4.65;2.55;;;;;;;29.99;49.85;98793.62;4374827;32;31991;-89
2023/08/28 08:42:56;;;;;;;6.05;3.03;;;;;;;30.16;48.69;98797.56;4355137;32;33715;-90
2023/08/28 08:45:28;;;;;;;3.12;2.90;;;;;;;30.40;48.23;98779.59;4366240;32;32912;-88
2023/08/28 08:48:00;;;;;;;3.80;2.78;;;;;;;30.51;48.46;98789.78;4371075;32;32259;-90
2023/08/28 08:50:35;;;;;;;2.25;2.05;;;;;;;30.42;47.50;98795.72;4364857;32;32343;-90
2023/08/28 08:53:11;;;;;;;2.17;1.27;;;;;;;30.34;47.91;98794.94;4371902;32;33969;-90
2023/08/28 08:55:46;;;;;;;2.92;2.67;;;;;;;30.52;47.73;98791.44;4361606;32;32797;-90
2023/08/28 08:58:15;;;;;;;4.78;2.83;;;;;;;30.64;47.84;98794.31;4362275;32;33590;-90
2023/08/28 09:00:43;;;;;;;11.50;2.95;;;;;;;30.70;47.65;98798.88;4383146;32;33372;-91
2023/08/28 09:03:14;;;;;;;2.45;1.83;;;;;;;31.18;47.61;98794.72;4349702;32;32872;-91
2023/08/28 09:09:58;;;;;;;6.07;3.28;;;;;;;31.34;46.81;98794.19;4358293;32;33957;-92
2023/08/28 09:12:51;;;;;;;3.10;2.20;;;;;;;31.07;46.38;98788.13;4332655;33;33102;-91
2023/08/28 09:15:39;;;;;;;2.55;2.35;;;;;;;31.41;45.86;98797.66;4332583;32;32953;-91
2023/08/28 09:18:37;;;;;;;9.68;2.30;;;;;;;31.55;45.65;98787.44;4321585;33;33099;-90
2023/08/28 09:21:16;;;;;;;1.70;1.60;;;;;;;31.59;46.37;98783.19;4353546;32;33410;-92
2023/08/28 09:24:09;;;;;;;4.25;2.62;;;;;;;32.19;44.62;98772.41;4352276;32;34165;-91
2023/08/28 09:26:53;;;;;;;3.62;2.20;;;;;;;32.16;43.90;98774.75;4347001;32;32352;-91
2023/08/28 09:29:44;;;;;;;7.87;2.12;;;;;;;32.05;44.67;98773.63;4359214;32;33078;-91
2023/08/28 09:32:28;;;;;;;23.87;2.87;;;;;;;32.23;44.04;98770.84;4356669;32;32186;-92
2023/08/28 09:35:20;;;;;;;6.93;3.10;;;;;;;32.05;44.61;98757.25;4335035;32;32471;-93
2023/08/28 09:37:58;;;;;;;6.72;2.78;;;;;;;32.36;42.90;98747.97;4334594;32;32868;-93
2023/08/28 09:40:46;;;;;;;2.25;2.05;;;;;;;32.54;43.59;98733.44;4353195;32;32843;-91
2023/08/28 09:43:41;;;;;;;3.12;2.05;;;;;;;32.72;43.31;98741.53;4362980;32;32614;-94
2023/08/28 09:46:55;;;;;;;4.95;1.92;;;;;;;32.81;43.03;98744.75;4350560;32;32000;-92
2023/08/28 09:49:25;;;;;;;6.07;3.12;;;;;;;32.74;43.73;98742.13;4335898;33;32663;-92
2023/08/28 09:52:24;;;;;;;2.40;2.20;;;;;;;33.10;41.61;98749.31;4333446;32;33163;-92
2023/08/28 09:55:05;;;;;;;3.75;2.58;;;;;;;33.00;41.74;98738.13;4301701;33;32628;-92
2023/08/28 09:58:08;;;;;;;3.75;2.35;;;;;;;33.31;41.79;98727.87;4299290;33;33901;-93
2023/08/28 10:00:40;;;;;;;1.73;1.62;;;;;;;33.31;40.75;98725.97;4291089;33;32680;-92
2023/08/28 10:03:11;;;;;;;7.20;1.55;;;;;;;33.46;40.27;98725.50;4292573;33;33237;-93
2023/08/28 10:05:44;;;;;;;4.45;2.45;;;;;;;33.72;39.80;98713.16;4302738;33;32835;-92
2023/08/28 10:08:17;;;;;;;1.48;1.37;;;;;;;33.82;39.27;98712.53;4302912;33;32090;-93
2023/08/28 10:11:01;;;;;;;2.50;2.12;;;;;;;33.36;39.08;98704.19;4316023;33;32713;-92
2023/08/28 10:14:06;;;;;;;1.80;1.70;;;;;;;33.52;39.83;98696.31;4347188;32;32307;-92
2023/08/28 10:17:04;;;;;;;3.45;2.00;;;;;;;33.43;39.07;98698.63;4352475;32;32821;-92
2023/08/28 10:19:58;;;;;;;2.55;1.73;;;;;;;33.62;38.96;98702.03;4330862;32;32723;-92
2023/08/28 10:22:38;;;;;;;1.75;1.60;;;;;;;33.68;37.23;98695.56;4344396;32;33617;-89
2023/08/28 10:25:30;;;;;;;1.73;1.10;;;;;;;34.11;36.93;98689.56;4353661;32;32844;-94
2023/08/28 10:28:11;;;;;;;5.70;1.42;;;;;;;34.13;37.63;98683.81;4334216;33;32690;-94
2023/08/28 10:30:57;;;;;;;3.95;2.25;;;;;;;34.31;36.27;98683.59;4356296;32;33876;-92
2023/08/28 10:33:37;;;;;;;9.27;2.83;;;;;;;34.85;37.18;98681.22;4350694;32;33395;-91
2023/08/28 10:36:18;;;;;;;2.10;1.23;;;;;;;34.48;36.34;98675.44;4341360;33;32692;-92
2023/08/28 10:39:00;;;;;;;6.87;1.77;;;;;;;35.02;36.11;98678.47;4311601;33;32154;-91
2023/08/28 10:41:50;;;;;;;2.28;1.00;;;;;;;35.17;35.08;98668.78;4325873;33;32475;-91
2023/08/28 10:44:23;;;;;;;3.08;2.33;;;;;;;35.68;35.13;98669.44;4319383;33;33372;-91
2023/08/28 10:46:51;;;;;;;2.12;1.92;;;;;;;35.62;34.77;98665.81;4329343;33;34061;-92
2023/08/28 10:49:20;;;;;;;3.95;2.97;;;;;;;35.33;35.26;98663.25;4292562;33;32928;-92
2023/08/28 10:52:12;;;;;;;1.80;1.67;;;;;;;35.71;34.37;98661.53;4317546;33;32411;-94
2023/08/28 10:54:43;;;;;;;2.80;2.47;;;;;;;35.89;34.08;98661.16;4319640;33;32796;-94
2023/08/28 10:57:32;;;;;;;;;;;;;;;36.00;33.92;98656.62;4329623;33;32621;-95
2023/08/28 11:00:18;;;;;;;3.00;1.85;;;;;;;35.19;35.52;98655.66;4322870;33;32415;-94
2023/08/28 11:03:18;;;;;;;10.68;4.30;;;;;;;35.70;34.64;98657.09;4330689;33;32126;-93
2023/08/28 11:06:38;;;;;;;3.10;1.90;;;;;;;35.93;33.77;98644.97;4384207;32;31185;-94
2023/08/28 11:09:39;;;;;;;2.20;1.67;;;;;;;35.94;33.08;98657.63;4349638;32;32616;-93
2023/08/28 11:12:44;;;;;;;1.73;1.55;;;;;;;35.99;32.50;98643.97;4333426;32;32900;-93
2023/08/28 11:15:41;;;;;;;2.05;1.85;;;;;;;36.22;32.20;98645.53;4346497;32;32027;-94
2023/08/28 11:18:28;;;;;;;1.48;1.37;;;;;;;36.10;32.80;98639.41;4362256;32;32745;-94
2023/08/28 11:21:23;;;;;;;2.33;1.87;;;;;;;36.19;32.83;98635.09;4334732;32;33016;-93
2023/08/28 11:23:54;;;;;;;2.95;2.37;;;;;;;35.95;33.31;98640.09;4335661;32;34388;-94
2023/08/28 11:26:45;;;;;;;2.15;1.95;;;;;;;35.94;31.91;98630.16;4337615;32;33096;-92
2023/08/28 11:29:27;;;;;;;0.82;0.82;;;;;;;35.81;32.40;98634.16;4342923;32;33033;-93
2023/08/28 11:32:20;;;;;;;5.78;1.75;;;;;;;36.22;32.68;98637.28;4348222;32;31790;-93
2023/08/28 11:35:05;;;;;;;1.55;1.45;;;;;;;36.24;32.72;98626.06;4340355;32;32979;-90
2023/08/28 11:37:39;;;;;;;1.90;1.45;;;;;;;36.54;31.29;98628.22;4334256;32;32405;-92
2023/08/28 11:40:20;;;;;;;1.55;1.45;;;;;;;37.06;31.93;98622.78;4359886;32;32537;-92
2023/08/28 11:43:15;;;;;;;7.68;2.70;;;;;;;36.95;30.79;98617.50;4336208;32;32995;-93
2023/08/28 11:45:43;;;;;;;2.20;2.00;;;;;;;37.16;31.78;98611.00;4340445;33;31910;-92
2023/08/28 11:48:37;;;;;;;2.72;2.50;;;;;;;36.95;31.26;98617.50;4329574;33;32183;-92
2023/08/28 11:51:07;;;;;;;2.40;1.62;;;;;;;36.71;30.61;98617.91;4321746;33;32728;-92
2023/08/28 11:53:55;;;;;;;2.20;1.90;;;;;;;36.51;31.46;98613.09;4316436;33;33815;-93
2023/08/28 11:56:23;;;;;;;1.25;1.23;;;;;;;36.58;30.61;98618.38;4318583;33;32842;-93
2023/08/28 11:59:14;;;;;;;4.72;2.05;;;;;;;36.85;31.51;98610.00;4306398;33;32988;-92
2023/08/28 12:01:46;;;;;;;2.22;1.52;;;;;;;37.20;29.92;98612.13;4303814;33;33026;-92
2023/08/28 12:04:42;;;;;;;3.22;1.73;;;;;;;37.15;29.84;98607.41;4328908;33;32717;-90
2023/08/28 12:07:27;;;;;;;1.30;1.20;;;;;;;37.04;30.23;98604.91;4326343;32;32250;-92
2023/08/28 12:10:21;;;;;;;1.85;1.75;;;;;;;37.54;29.19;98597.94;4344047;32;32006;-93
2023/08/28 12:13:00;;;;;;;4.00;2.17;;;;;;;37.50;29.91;98599.56;4319600;32;33667;-91
2023/08/28 12:15:49;;;;;;;2.70;1.30;;;;;;;37.44;30.18;98581.38;4317594;32;32651;-92
2023/08/28 12:18:28;;;;;;;2.80;1.30;;;;;;;37.58;29.84;98568.75;4303645;33;32933;-90